Time;durP1;ratioP1;P1;durP2;ratioP2;P2;SDS_P1;SDS_P2;PMS_P1;PMS_P2;Temp;Humidity;BMP_temperature;BMP_pressure;BME280_temperature;BME280_humidity;BME280_pressure;Samples;Min_cycle;Max_cycle;Signal;HPM_P1;HPM_P2
2021/09/06 00:01:31;;;;;;;10.38;5.05;;;;;;;24.66;59.62;101552.05;1742526;81;21017;-50
2021/09/06 00:03:57;;;;;;;11.63;5.90;;;;;;;24.66;59.70;101549.83;1743788;80;21068;-48
2021/09/06 00:06:23;;;;;;;10.45;5.50;;;;;;;24.66;59.71;101548.44;1748334;81;21727;-54
2021/09/06 00:08:50;;;;;;;10.82;5.45;;;;;;;24.66;59.68;101550.66;1751367;79;22238;-49
2021/09/06 00:11:16;;;;;;;10.13;6.05;;;;;;;24.66;59.60;101548.44;1747344;81;21065;-51
2021/09/06 00:13:42;;;;;;;10.70;5.87;;;;;;;24.66;59.55;101556.22;1746217;79;21463;-50
2021/09/06 00:16:08;;;;;;;11.50;5.35;;;;;;;24.66;59.46;101560.39;1754912;81;21052;-49
2021/09/06 00:18:34;;;;;;;12.70;5.80;;;;;;;24.65;59.38;101557.95;1748675;81;21041;-51
2021/09/06 00:21:06;;;;;;;8.40;5.12;;;;;;;24.64;59.32;101557.70;1748262;80;21617;-48
2021/09/06 00:23:33;;;;;;;10.48;5.10;;;;;;;24.61;59.27;101549.45;1761367;79;21064;-48
2021/09/06 00:25:59;;;;;;;11.78;5.65;;;;;;;24.59;59.25;101554.51;1753947;80;21103;-48
2021/09/06 00:28:25;;;;;;;11.97;5.30;;;;;;;24.56;59.22;101550.43;1751806;81;21060;-47
2021/09/06 00:30:51;;;;;;;9.48;4.75;;;;;;;24.53;59.18;101544.67;1748539;79;21126;-49
2021/09/06 00:33:18;;;;;;;12.58;5.42;;;;;;;24.50;59.17;101548.94;1749097;81;21567;-48
2021/09/06 00:35:46;;;;;;;8.05;4.65;;;;;;;24.47;59.13;101553.77;1752312;81;21167;-52
2021/09/06 00:38:14;;;;;;;6.60;4.42;;;;;;;24.46;59.14;101559.66;1745924;79;21593;-48
2021/09/06 00:40:41;;;;;;;8.30;4.37;;;;;;;24.46;59.13;101566.61;1747754;81;21084;-48
2021/09/06 00:43:08;;;;;;;10.15;5.50;;;;;;;24.47;59.19;101560.73;1748053;81;21072;-49
2021/09/06 00:45:34;;;;;;;8.10;4.50;;;;;;;24.49;59.26;101563.16;1742673;81;21076;-48
2021/09/06 00:48:00;;;;;;;7.80;4.28;;;;;;;24.49;59.34;101559.81;1746595;81;21628;-48
2021/09/06 00:50:26;;;;;;;8.55;4.83;;;;;;;24.51;59.36;101566.45;1749436;81;22277;-49
2021/09/06 00:52:53;;;;;;;9.03;4.35;;;;;;;24.51;59.33;101563.10;1720017;81;21072;-49
2021/09/06 00:55:19;;;;;;;9.65;4.87;;;;;;;24.53;59.28;101566.36;1743390;81;21035;-48
2021/09/06 00:57:45;;;;;;;9.75;4.67;;;;;;;24.52;59.19;101566.14;1751341;81;21496;-49
2021/09/06 01:00:14;;;;;;;9.28;4.35;;;;;;;24.52;59.08;101559.75;1715556;81;21035;-51
2021/09/06 01:02:42;;;;;;;6.83;4.85;;;;;;;24.52;59.05;101561.97;1745916;80;33356;-47
2021/09/06 01:05:10;;;;;;;8.80;4.70;;;;;;;24.50;58.97;101564.81;1752779;80;21036;-48
2021/09/06 01:07:36;;;;;;;8.33;4.22;;;;;;;24.49;58.89;101565.95;1744903;81;21555;-48
2021/09/06 01:10:08;;;;;;;7.22;4.30;;;;;;;24.47;58.83;101569.08;1746680;81;23204;-51
2021/09/06 01:12:35;;;;;;;7.60;4.53;;;;;;;24.44;58.81;101566.92;1744408;81;21095;-48
2021/09/06 01:15:02;;;;;;;7.42;4.30;;;;;;;24.41;58.75;101566.19;1750629;79;21126;-49
2021/09/06 01:17:28;;;;;;;10.23;4.75;;;;;;;24.40;58.73;101564.55;1747151;81;21082;-49
2021/09/06 01:19:54;;;;;;;7.30;4.40;;;;;;;24.38;58.72;101574.38;1749693;81;21063;-49
2021/09/06 01:22:21;;;;;;;6.55;4.05;;;;;;;24.35;58.71;101571.68;1745904;79;21104;-48
2021/09/06 01:24:47;;;;;;;8.18;4.58;;;;;;;24.32;58.70;101569.52;1760805;80;21025;-51
2021/09/06 01:27:14;;;;;;;7.62;4.53;;;;;;;24.30;58.71;101570.44;1751918;80;22637;-47
2021/09/06 01:29:41;;;;;;;6.08;3.47;;;;;;;24.28;58.71;101566.33;1750719;80;21086;-48
2021/09/06 01:32:08;;;;;;;7.53;3.83;;;;;;;24.29;58.68;101566.02;1750313;79;21071;-49
2021/09/06 01:34:34;;;;;;;5.75;3.75;;;;;;;24.31;58.75;101570.69;1752665;80;21161;-49
2021/09/06 01:37:01;;;;;;;7.95;3.83;;;;;;;24.32;58.84;101572.31;1758321;80;21122;-52
2021/09/06 01:39:27;;;;;;;5.72;3.90;;;;;;;24.34;58.93;101567.82;1752894;81;21643;-52
2021/09/06 01:41:54;;;;;;;8.55;4.10;;;;;;;24.34;58.95;101567.25;1752530;80;21911;-49
2021/09/06 01:44:20;;;;;;;6.35;3.70;;;;;;;24.36;58.90;101565.52;1755858;80;21055;-49
2021/09/06 01:46:46;;;;;;;6.30;3.75;;;;;;;24.37;58.83;101569.37;1752299;80;22098;-51
2021/09/06 01:49:13;;;;;;;8.08;4.22;;;;;;;24.37;58.77;101561.59;1754557;80;21098;-49
2021/09/06 01:51:39;;;;;;;10.08;4.33;;;;;;;24.37;58.69;101570.77;1751091;80;21653;-48
2021/09/06 01:54:06;;;;;;;6.97;4.12;;;;;;;24.37;58.67;101574.11;1758483;80;21074;-48
2021/09/06 01:56:32;;;;;;;7.70;4.20;;;;;;;24.36;58.61;101578.03;1720851;81;21127;-48
2021/09/06 01:58:58;;;;;;;7.75;3.90;;;;;;;24.35;58.57;101578.63;1763587;79;21206;-48
2021/09/06 02:01:24;;;;;;;7.58;4.00;;;;;;;24.33;58.57;101579.52;1754406;80;21729;-48
2021/09/06 02:03:50;;;;;;;8.58;3.52;;;;;;;24.31;58.53;101580.42;1751715;81;21032;-48
2021/09/06 02:06:16;;;;;;;5.25;3.52;;;;;;;24.29;58.53;101581.88;1751926;80;21103;-47
2021/09/06 02:08:43;;;;;;;7.28;4.10;;;;;;;24.28;58.50;101584.41;1754560;79;22310;-48
2021/09/06 02:11:09;;;;;;;9.23;3.87;;;;;;;24.25;58.49;101589.23;1753710;80;21319;-48
2021/09/06 02:13:35;;;;;;;6.12;3.70;;;;;;;24.23;58.50;101583.98;1736304;80;21021;-48
2021/09/06 02:16:01;;;;;;;6.50;3.87;;;;;;;24.20;58.47;101584.64;1764521;79;21071;-48
2021/09/06 02:18:27;;;;;;;5.75;3.77;;;;;;;24.18;58.49;101584.16;1777316;79;21527;-49
2021/09/06 02:20:54;;;;;;;5.55;3.65;;;;;;;24.17;58.49;101585.86;1767448;79;21107;-49
2021/09/06 02:23:20;;;;;;;6.05;3.15;;;;;;;24.14;58.49;101583.92;1764977;79;21235;-48
2021/09/06 02:25:46;;;;;;;5.65;3.15;;;;;;;24.16;58.50;101580.04;1754307;80;21515;-48
2021/09/06 02:28:12;;;;;;;5.10;3.20;;;;;;;24.18;58.54;101580.55;1770175;80;20988;-49
2021/09/06 02:30:38;;;;;;;4.97;3.10;;;;;;;24.18;58.67;101579.98;1735652;81;21135;-49
2021/09/06 02:33:04;;;;;;;5.37;3.35;;;;;;;24.20;58.73;101582.42;1759225;80;21132;-48
2021/09/06 02:35:31;;;;;;;7.87;3.72;;;;;;;24.21;58.75;101575.16;1757526;79;21111;-50
2021/09/06 02:37:57;;;;;;;7.28;3.98;;;;;;;24.22;58.71;101571.24;1751844;81;21135;-49
2021/09/06 02:40:24;;;;;;;10.90;3.65;;;;;;;24.24;58.64;101567.55;1769818;80;21033;-50
2021/09/06 02:42:50;;;;;;;5.53;3.27;;;;;;;24.24;58.56;101577.85;1763750;79;21059;-48
2021/09/06 02:45:16;;;;;;;6.55;3.50;;;;;;;24.25;58.49;101569.20;1773731;80;21013;-48
2021/09/06 02:47:46;;;;;;;7.40;4.17;;;;;;;24.24;58.39;101575.07;1742156;81;21299;-48
2021/09/06 02:50:12;;;;;;;5.85;3.45;;;;;;;24.23;58.34;101578.42;1778535;80;20930;-49
2021/09/06 02:52:38;;;;;;;5.70;3.65;;;;;;;24.22;58.27;101580.16;1768613;80;20940;-49
2021/09/06 02:55:06;;;;;;;5.83;3.30;;;;;;;24.20;58.23;101578.25;1742257;81;21063;-52
2021/09/06 02:57:32;;;;;;;4.65;3.08;;;;;;;24.18;58.20;101578.59;1735909;81;21062;-48
2021/09/06 02:59:58;;;;;;;4.62;2.98;;;;;;;24.16;58.16;101583.64;1734949;81;23297;-48
2021/09/06 03:02:26;;;;;;;6.20;3.72;;;;;;;24.14;58.15;101585.31;1758509;79;21199;-48
2021/09/06 03:04:52;;;;;;;5.58;3.35;;;;;;;24.12;58.12;101588.19;1751285;81;21080;-50
2021/09/06 03:07:18;;;;;;;5.87;3.15;;;;;;;24.10;58.10;101589.09;1750197;79;20890;-49
2021/09/06 03:09:44;;;;;;;5.45;3.08;;;;;;;24.07;58.10;101586.94;1753430;81;21553;-48
2021/09/06 03:12:10;;;;;;;6.00;3.67;;;;;;;24.06;58.09;101592.27;1756222;81;20992;-50
2021/09/06 03:14:36;;;;;;;5.78;3.50;;;;;;;24.04;58.08;101590.37;1751799;81;20981;-51
2021/09/06 03:17:03;;;;;;;5.53;3.58;;;;;;;24.01;58.08;101590.45;1769868;80;21001;-49
2021/09/06 03:19:29;;;;;;;5.42;3.55;;;;;;;24.00;58.09;101595.76;1771022;80;21019;-48
2021/09/06 03:21:55;;;;;;;5.47;2.95;;;;;;;23.98;58.10;101599.98;1743579;81;21021;-48
2021/09/06 03:24:22;;;;;;;5.62;3.45;;;;;;;23.95;58.08;101607.58;1758455;79;22622;-49
2021/09/06 03:26:48;;;;;;;5.53;3.00;;;;;;;23.95;58.11;101613.14;1764872;79;21010;-49
2021/09/06 03:29:14;;;;;;;4.53;2.70;;;;;;;23.92;58.08;101614.61;1764439;79;21426;-49
2021/09/06 03:31:40;;;;;;;7.72;3.20;;;;;;;23.93;58.12;101622.39;1764795;80;21118;-50
2021/09/06 03:34:06;;;;;;;4.92;2.92;;;;;;;23.95;58.17;101618.70;1764565;80;20931;-48
2021/09/06 03:36:32;;;;;;;6.22;3.10;;;;;;;23.98;58.26;101625.00;1765426;80;21302;-47
2021/09/06 03:38:58;;;;;;;4.92;2.55;;;;;;;23.98;58.36;101623.61;1762618;80;21069;-48
2021/09/06 03:41:25;;;;;;;5.00;2.62;;;;;;;24.00;58.37;101631.89;1759568;79;21040;-48
2021/09/06 03:43:51;;;;;;;4.78;3.05;;;;;;;24.01;58.35;101626.59;1767737;79;20993;-50
2021/09/06 03:46:17;;;;;;;5.10;3.02;;;;;;;24.04;58.28;101630.11;1763464;80;21107;-48
2021/09/06 03:48:44;;;;;;;5.22;3.30;;;;;;;24.05;58.20;101633.71;1760592;79;21090;-48
2021/09/06 03:51:10;;;;;;;8.43;3.12;;;;;;;24.05;58.12;101627.59;1766150;79;21432;-50
2021/09/06 03:53:36;;;;;;;6.58;2.83;;;;;;;24.04;58.05;101627.90;1761943;81;21056;-50
2021/09/06 03:56:03;;;;;;;4.53;3.05;;;;;;;24.04;57.97;101632.06;1765943;81;21072;-49
2021/09/06 03:58:29;;;;;;;4.20;2.65;;;;;;;24.03;57.92;101624.30;1762737;79;21467;-48
2021/09/06 04:00:55;;;;;;;7.62;3.08;;;;;;;24.02;57.87;101632.94;1765654;79;21213;-50
2021/09/06 04:03:21;;;;;;;4.67;2.87;;;;;;;24.01;57.81;101627.98;1762483;80;20938;-49
2021/09/06 04:05:47;;;;;;;4.22;2.80;;;;;;;23.98;57.77;101631.95;1764313;79;21897;-52
2021/09/06 04:08:13;;;;;;;4.33;2.70;;;;;;;23.96;57.75;101631.47;1765716;79;20877;-50
2021/09/06 04:10:39;;;;;;;5.80;2.92;;;;;;;23.95;57.72;101628.42;1762591;79;21098;-50
2021/09/06 04:13:05;;;;;;;4.60;2.87;;;;;;;23.93;57.72;101640.45;1763727;81;21489;-48
2021/09/06 04:15:31;;;;;;;4.78;2.58;;;;;;;23.91;57.70;101639.38;1766322;80;21368;-49
2021/09/06 04:17:57;;;;;;;6.08;2.90;;;;;;;23.88;57.71;101640.59;1764744;79;21067;-49
2021/09/06 04:20:23;;;;;;;7.17;3.37;;;;;;;23.87;57.72;101643.93;1762258;79;21067;-48
2021/09/06 04:22:50;;;;;;;4.60;2.60;;;;;;;23.86;57.71;101640.08;1765934;79;21631;-51
2021/09/06 04:25:16;;;;;;;4.37;2.85;;;;;;;23.83;57.72;101649.88;1763931;80;21177;-48
2021/09/06 04:27:42;;;;;;;5.87;2.70;;;;;;;23.79;57.70;101645.28;1760456;79;21009;-48
2021/09/06 04:30:10;;;;;;;4.10;2.60;;;;;;;23.82;57.72;101649.63;1767095;79;20949;-51
2021/09/06 04:32:36;;;;;;;4.70;2.72;;;;;;;23.79;57.72;101646.10;1766671;79;21182;-47
2021/09/06 04:35:03;;;;;;;5.42;3.25;;;;;;;23.78;57.72;101651.97;1766658;80;21042;-49
2021/09/06 04:37:31;;;;;;;6.90;3.52;;;;;;;23.78;57.72;101650.58;1763122;79;21080;-50
2021/09/06 04:39:58;;;;;;;5.28;3.00;;;;;;;23.76;57.74;101651.48;1767469;81;21095;-48
2021/09/06 04:42:24;;;;;;;6.85;3.02;;;;;;;23.74;57.74;101651.79;1766243;81;21453;-49
2021/09/06 04:44:50;;;;;;;4.87;2.40;;;;;;;23.73;57.75;101656.27;1761091;79;21055;-48
2021/09/06 04:47:17;;;;;;;3.70;2.40;;;;;;;23.75;57.75;101659.56;1765079;80;21103;-50
2021/09/06 04:49:43;;;;;;;4.35;2.42;;;;;;;23.78;57.82;101662.52;1763960;80;21472;-48
2021/09/06 04:52:09;;;;;;;4.28;2.40;;;;;;;23.80;57.92;101664.42;1764673;80;20901;-49
2021/09/06 04:54:35;;;;;;;3.52;2.22;;;;;;;23.82;57.98;101674.63;1765042;79;21032;-47
2021/09/06 04:57:01;;;;;;;5.62;2.95;;;;;;;23.84;58.02;101664.59;1764491;79;20961;-48
2021/09/06 04:59:27;;;;;;;3.50;2.55;;;;;;;23.87;57.98;101668.94;1760501;79;21024;-47
2021/09/06 05:01:54;;;;;;;4.65;2.75;;;;;;;23.89;57.91;101671.41;1762222;80;22075;-48
2021/09/06 05:04:20;;;;;;;4.53;2.60;;;;;;;23.89;57.83;101671.41;1766160;81;21029;-54
2021/09/06 05:06:46;;;;;;;3.62;2.87;;;;;;;23.88;57.76;101677.54;1765663;79;21065;-50
2021/09/06 05:09:12;;;;;;;5.87;2.90;;;;;;;23.91;57.67;101673.29;1762160;79;21522;-48
2021/09/06 05:11:38;;;;;;;5.58;2.80;;;;;;;23.89;57.61;101673.59;1760666;79;21076;-47
2021/09/06 05:14:04;;;;;;;6.60;2.95;;;;;;;23.89;57.54;101679.16;1761761;79;21246;-48
2021/09/06 05:16:30;;;;;;;9.03;3.52;;;;;;;23.88;57.48;101678.93;1758693;79;21706;-48
2021/09/06 05:18:57;;;;;;;9.23;3.75;;;;;;;23.88;57.47;101676.16;1762359;80;21505;-47
2021/09/06 05:21:23;;;;;;;9.50;3.80;;;;;;;23.87;57.44;101673.11;1759402;79;20893;-52
2021/09/06 05:23:49;;;;;;;33.90;9.75;;;;;;;23.86;57.42;101676.20;1762991;81;21138;-47
2021/09/06 05:26:15;;;;;;;30.27;9.13;;;;;;;23.84;57.39;101673.77;1762138;80;21561;-48
2021/09/06 05:28:41;;;;;;;30.88;10.23;;;;;;;23.82;57.38;101678.80;1758230;80;20905;-49
2021/09/06 05:31:08;;;;;;;17.82;5.30;;;;;;;23.82;57.35;101671.03;1761989;79;21071;-48
2021/09/06 05:33:35;;;;;;;6.37;3.15;;;;;;;23.78;57.34;101672.23;1762634;79;21397;-48
2021/09/06 05:36:01;;;;;;;5.53;3.00;;;;;;;23.78;57.31;101679.19;1761577;79;21077;-49
2021/09/06 05:38:27;;;;;;;5.35;2.45;;;;;;;23.76;57.29;101677.87;1759084;79;21535;-47
2021/09/06 05:40:53;;;;;;;4.15;2.55;;;;;;;23.73;57.25;101670.98;1765765;80;21052;-48
2021/09/06 05:43:19;;;;;;;4.37;2.33;;;;;;;23.72;57.20;101675.48;1754003;79;21113;-48
2021/09/06 05:45:46;;;;;;;5.03;2.55;;;;;;;23.71;57.19;101678.00;1765584;79;21110;-49
2021/09/06 05:48:13;;;;;;;8.13;2.92;;;;;;;23.68;57.16;101677.48;1765601;80;21021;-48
2021/09/06 05:50:39;;;;;;;15.30;4.60;;;;;;;23.68;57.13;101678.05;1761429;79;21411;-48
2021/09/06 05:53:05;;;;;;;39.73;11.78;;;;;;;23.68;57.11;101681.43;1759350;79;21613;-50
2021/09/06 05:55:32;;;;;;;112.90;37.40;;;;;;;23.65;57.06;101680.91;1761241;79;20893;-49
2021/09/06 05:57:58;;;;;;;184.15;53.48;;;;;;;23.65;57.03;101687.86;1761429;79;21134;-48
2021/09/06 06:00:24;;;;;;;78.70;23.15;;;;;;;23.63;57.01;101684.59;1763458;79;20893;-51
2021/09/06 06:02:51;;;;;;;59.50;18.37;;;;;;;23.62;56.96;101673.78;1763600;79;21115;-50
2021/09/06 06:05:17;;;;;;;37.83;11.15;;;;;;;23.61;56.89;101672.96;1764232;79;21044;-48
2021/09/06 06:07:43;;;;;;;20.25;6.78;;;;;;;23.59;56.87;101672.44;1762179;81;21028;-48
2021/09/06 06:10:10;;;;;;;48.73;11.25;;;;;;;23.59;56.80;101680.77;1763773;79;21127;-48
2021/09/06 06:12:37;;;;;;;31.48;8.43;;;;;;;23.58;56.74;101677.77;1763343;81;21144;-48
2021/09/06 06:15:04;;;;;;;26.33;7.10;;;;;;;23.58;56.68;101683.89;1761614;79;22541;-51
2021/09/06 06:17:30;;;;;;;59.95;16.37;;;;;;;23.56;56.60;101681.42;1762047;79;21010;-47
2021/09/06 06:19:57;;;;;;;98.65;24.02;;;;;;;23.57;56.57;101689.19;1765629;79;20989;-49
2021/09/06 06:22:24;;;;;;;41.98;10.75;;;;;;;23.55;56.51;101693.66;1762472;79;21496;-47
2021/09/06 06:24:50;;;;;;;19.87;5.87;;;;;;;23.55;56.43;101692.27;1767407;79;20993;-49
2021/09/06 06:27:16;;;;;;;15.55;4.47;;;;;;;23.54;56.36;101699.55;1765369;80;21679;-49
2021/09/06 06:29:42;;;;;;;13.38;4.37;;;;;;;23.54;56.26;101701.77;1767371;80;21079;-49
2021/09/06 06:32:08;;;;;;;12.00;4.53;;;;;;;23.53;56.20;101699.30;1736275;81;21035;-48
2021/09/06 06:34:35;;;;;;;11.93;4.15;;;;;;;23.52;56.12;101705.98;1737664;81;21668;-47
2021/09/06 06:37:01;;;;;;;10.45;4.28;;;;;;;23.52;56.05;101708.19;1734076;81;21016;-50
2021/09/06 06:39:27;;;;;;;12.13;4.00;;;;;;;23.51;55.94;101705.16;1761795;80;21925;-51
2021/09/06 06:41:53;;;;;;;12.28;3.87;;;;;;;23.50;55.88;101709.09;1735972;81;20893;-48
2021/09/06 06:44:19;;;;;;;10.18;3.75;;;;;;;23.50;55.78;101707.70;1759929;80;21649;-51
2021/09/06 06:46:45;;;;;;;11.78;4.40;;;;;;;23.49;55.68;101703.27;1759652;80;20911;-47
2021/09/06 06:49:11;;;;;;;10.43;3.62;;;;;;;23.48;55.61;101703.02;1725479;81;21139;-48
2021/09/06 06:51:38;;;;;;;8.70;3.47;;;;;;;23.48;55.52;101698.02;1764091;79;21464;-47
2021/09/06 06:54:05;;;;;;;13.03;4.40;;;;;;;23.48;55.43;101704.97;1753691;81;21453;-47
2021/09/06 06:56:31;;;;;;;8.48;4.05;;;;;;;23.48;55.35;101712.73;1765784;80;21023;-48
2021/09/06 06:58:57;;;;;;;9.93;3.77;;;;;;;23.48;55.27;101716.91;1734354;82;21600;-48
2021/09/06 07:01:23;;;;;;;8.18;4.05;;;;;;;23.47;55.19;101715.25;1752882;80;21065;-48
2021/09/06 07:03:49;;;;;;;10.72;3.80;;;;;;;23.47;55.09;101717.20;1733342;81;21169;-47
2021/09/06 07:06:16;;;;;;;8.33;3.50;;;;;;;23.45;55.02;101727.27;1764478;80;21387;-46
2021/09/06 07:08:42;;;;;;;9.43;2.92;;;;;;;23.46;54.95;101723.92;1733212;81;21023;-50
2021/09/06 07:11:08;;;;;;;9.70;3.35;;;;;;;23.43;54.85;101718.41;1765801;80;21141;-47
2021/09/06 07:13:35;;;;;;;10.95;3.22;;;;;;;23.43;54.77;101725.35;1765188;80;21490;-47
2021/09/06 07:16:01;;;;;;;8.68;3.70;;;;;;;23.44;54.70;101730.34;1755100;80;20954;-51
2021/09/06 07:18:27;;;;;;;8.38;2.87;;;;;;;23.43;54.61;101721.19;1732641;81;21071;-47
2021/09/06 07:20:53;;;;;;;10.53;3.45;;;;;;;23.43;54.54;101724.50;1770440;80;21100;-47
2021/09/06 07:23:19;;;;;;;10.03;3.27;;;;;;;23.43;54.47;101733.69;1768285;80;21472;-47
2021/09/06 07:25:45;;;;;;;6.65;3.60;;;;;;;23.43;54.37;101739.23;1775689;80;21096;-47
2021/09/06 07:28:11;;;;;;;7.00;3.25;;;;;;;23.42;54.32;101739.55;1773360;80;21082;-47
2021/09/06 07:30:38;;;;;;;6.92;3.10;;;;;;;23.41;54.25;101737.33;1780707;80;21369;-47
2021/09/06 07:33:06;;;;;;;6.08;2.80;;;;;;;23.41;54.17;101735.11;1781452;80;21045;-48
2021/09/06 07:35:32;;;;;;;6.92;2.77;;;;;;;23.41;54.08;101742.88;1776793;80;21053;-48
2021/09/06 07:37:58;;;;;;;5.55;2.58;;;;;;;23.41;54.01;101740.11;1772847;80;21071;-48
2021/09/06 07:40:25;;;;;;;7.03;2.80;;;;;;;23.41;53.94;101732.34;1775896;79;21537;-46
2021/09/06 07:42:51;;;;;;;6.37;2.30;;;;;;;23.40;53.83;101731.52;1771590;80;21076;-47
2021/09/06 07:45:17;;;;;;;2.83;1.57;;;;;;;23.39;53.54;101727.09;1774729;80;21055;-47
2021/09/06 07:47:44;;;;;;;4.28;1.70;;;;;;;23.36;52.56;101727.73;1780584;80;21164;-47
2021/09/06 07:50:11;;;;;;;4.87;2.00;;;;;;;23.34;51.45;101729.98;1779110;80;21060;-47
2021/09/06 07:52:38;;;;;;;3.47;1.77;;;;;;;23.32;50.58;101729.48;1777118;80;21075;-50
2021/09/06 07:55:06;;;;;;;4.28;2.02;;;;;;;23.31;50.06;101720.08;1775171;80;21040;-46
2021/09/06 07:57:32;;;;;;;5.60;1.92;;;;;;;23.31;49.98;101725.63;1775775;80;21114;-49
2021/09/06 07:59:58;;;;;;;4.85;2.12;;;;;;;23.28;49.52;101722.92;1777364;79;21044;-47
2021/09/06 08:02:25;;;;;;;2.85;1.60;;;;;;;23.30;49.10;101723.41;1773717;80;21508;-47
2021/09/06 08:07:29;;;;;;;2.85;1.62;;;;;;;23.34;48.46;101724.42;1845110;75;22660;-48
2021/09/06 08:09:55;;;;;;;3.52;1.70;;;;;;;23.31;47.92;101724.23;1815093;77;20946;-48
2021/09/06 08:12:21;;;;;;;2.90;1.70;;;;;;;23.30;47.47;101726.19;1802781;78;21070;-50
2021/09/06 08:14:47;;;;;;;3.83;1.70;;;;;;;23.29;47.13;101725.96;1798582;77;20977;-50
2021/09/06 08:17:14;;;;;;;4.85;1.42;;;;;;;23.29;46.63;101736.24;1809475;78;21013;-48
2021/09/06 08:19:40;;;;;;;3.20;1.65;;;;;;;23.28;46.27;101731.25;1812361;77;21171;-49
2021/09/06 08:22:06;;;;;;;4.67;1.70;;;;;;;23.28;46.17;101736.80;1817357;77;20923;-47
2021/09/06 08:24:32;;;;;;;5.53;1.75;;;;;;;23.30;46.28;101735.11;1801587;77;21074;-48
2021/09/06 08:26:58;;;;;;;3.95;1.57;;;;;;;23.30;46.42;101739.28;1810528;78;21030;-51
2021/09/06 08:29:25;;;;;;;4.33;1.70;;;;;;;23.28;46.49;101745.13;1810981;77;20962;-48
2021/09/06 08:31:51;;;;;;;2.45;1.80;;;;;;;23.28;46.51;101752.64;1817166;77;21273;-48
2021/09/06 08:34:17;;;;;;;3.60;1.70;;;;;;;23.28;46.55;101742.36;1809565;77;21017;-47
2021/09/06 08:36:43;;;;;;;2.52;1.75;;;;;;;23.29;46.57;101743.19;1804781;77;21523;-48
2021/09/06 08:39:09;;;;;;;4.78;1.70;;;;;;;23.28;46.57;101728.48;1812518;77;21723;-48
2021/09/06 08:41:36;;;;;;;3.37;1.87;;;;;;;23.28;46.60;101736.80;1814361;77;21196;-51
2021/09/06 08:44:02;;;;;;;2.72;1.57;;;;;;;23.29;46.63;101728.73;1811102;78;21018;-47
2021/09/06 08:46:28;;;;;;;2.47;1.57;;;;;;;23.27;46.66;101729.61;1805905;76;21021;-46
2021/09/06 08:48:55;;;;;;;2.17;1.50;;;;;;;23.28;46.69;101735.42;1804495;77;21507;-49
2021/09/06 08:51:21;;;;;;;3.20;1.70;;;;;;;23.29;46.73;101728.73;1807732;75;21096;-48
2021/09/06 08:53:47;;;;;;;2.47;1.42;;;;;;;23.29;46.77;101737.06;1814984;77;21072;-51
2021/09/06 08:56:13;;;;;;;6.78;1.60;;;;;;;23.30;46.83;101732.34;1810561;77;21629;-47
2021/09/06 08:58:40;;;;;;;2.55;1.57;;;;;;;23.29;46.89;101723.75;1803297;77;21163;-48
2021/09/06 09:01:06;;;;;;;2.55;1.32;;;;;;;23.30;46.93;101727.58;1801241;78;21093;-48
2021/09/06 09:03:32;;;;;;;3.85;1.57;;;;;;;23.30;46.99;101722.02;1805137;77;20954;-49
2021/09/06 09:06:02;;;;;;;2.67;1.45;;;;;;;23.30;47.05;101731.74;1803005;77;21061;-48
2021/09/06 09:08:29;;;;;;;2.70;1.52;;;;;;;23.30;47.10;101726.19;1808659;77;21051;-47
2021/09/06 09:11:05;;;;;;;2.05;1.30;;;;;;;23.31;47.18;101729.23;1811768;78;21239;-49
2021/09/06 09:13:33;;;;;;;4.15;1.55;;;;;;;23.32;47.22;101730.88;1803305;77;21370;-47
2021/09/06 09:16:00;;;;;;;2.60;1.55;;;;;;;23.31;47.28;101733.95;1808980;77;21542;-47
2021/09/06 09:18:32;;;;;;;3.33;1.40;;;;;;;23.31;47.33;101722.28;1810847;77;21041;-47
2021/09/06 09:21:06;;;;;;;2.60;1.67;;;;;;;23.32;47.38;101731.44;1801690;77;21057;-47
2021/09/06 09:23:44;;;;;;;2.10;1.15;;;;;;;23.32;47.45;101725.33;1814647;77;21002;-47
2021/09/06 09:26:11;;;;;;;3.92;1.35;;;;;;;23.32;47.50;101723.94;1802024;77;21128;-49
2021/09/06 09:28:40;;;;;;;2.10;1.40;;;;;;;23.32;47.54;101723.94;1807872;78;21500;-49
2021/09/06 09:31:13;;;;;;;2.85;1.40;;;;;;;23.33;47.60;101724.76;1807207;78;21163;-48
2021/09/06 09:33:50;;;;;;;2.87;1.40;;;;;;;23.32;47.66;101717.56;1811367;78;21544;-48
2021/09/06 09:36:30;;;;;;;2.98;1.27;;;;;;;23.32;47.71;101723.94;1808311;77;21093;-50
2021/09/06 09:39:10;;;;;;;2.53;1.43;;;;;;;23.33;47.76;101725.59;1812521;77;21058;-50
2021/09/06 09:41:37;;;;;;;1.67;1.02;;;;;;;23.33;47.81;101725.59;1808802;77;21038;-47
2021/09/06 09:44:15;;;;;;;3.08;1.47;;;;;;;23.33;47.87;101726.97;1801803;77;21073;-51
2021/09/06 09:46:57;;;;;;;3.50;1.40;;;;;;;23.34;47.94;101721.65;1805066;77;21521;-49
2021/09/06 09:49:23;;;;;;;2.50;1.32;;;;;;;23.34;47.98;101720.26;1782537;78;21120;-48
2021/09/06 09:51:51;;;;;;;4.80;1.45;;;;;;;23.35;48.04;101717.74;1818419;77;21071;-48
2021/09/06 09:54:17;;;;;;;2.22;1.07;;;;;;;23.35;48.08;101721.91;1804300;77;21496;-48
2021/09/06 09:56:44;;;;;;;2.05;1.17;;;;;;;23.37;48.13;101720.22;1810983;77;21099;-48
2021/09/06 09:59:12;;;;;;;2.90;1.40;;;;;;;23.37;48.19;101729.38;1805716;77;21536;-48
2021/09/06 10:01:46;;;;;;;2.25;1.40;;;;;;;23.38;48.26;101716.31;1803050;77;21052;-50
2021/09/06 10:04:13;;;;;;;2.25;1.40;;;;;;;23.39;48.30;101716.55;1803169;78;21145;-49
2021/09/06 10:06:39;;;;;;;2.72;1.50;;;;;;;23.39;48.37;101719.32;1799751;77;20974;-50
2021/09/06 10:09:06;;;;;;;2.02;1.17;;;;;;;23.41;48.42;101712.90;1801530;78;20939;-48
2021/09/06 10:11:40;;;;;;;2.20;1.07;;;;;;;23.41;48.48;101712.33;1809206;77;21075;-52
2021/09/06 10:14:19;;;;;;;1.82;1.30;;;;;;;23.43;48.53;101707.83;1809934;78;21212;-51
2021/09/06 10:17:08;;;;;;;3.30;1.20;;;;;;;23.45;48.59;101707.00;1806722;77;21100;-51
2021/09/06 10:19:49;;;;;;;3.12;1.20;;;;;;;23.45;48.65;101716.16;1806259;78;21116;-47
2021/09/06 10:22:27;;;;;;;1.80;1.23;;;;;;;23.46;48.70;101715.59;1798845;78;21695;-49
2021/09/06 10:24:59;;;;;;;2.90;1.30;;;;;;;23.46;48.73;101708.08;1804745;77;21568;-48
2021/09/06 10:27:27;;;;;;;2.72;1.17;;;;;;;23.49;48.77;101712.17;1808129;77;21120;-48
2021/09/06 10:30:02;;;;;;;2.50;1.35;;;;;;;23.49;48.84;101707.44;1810623;78;21543;-49
2021/09/06 10:32:46;;;;;;;3.08;1.47;;;;;;;23.51;48.88;101700.16;1778409;77;21527;-48
2021/09/06 10:35:20;;;;;;;2.17;1.35;;;;;;;23.52;48.91;101698.47;1766600;78;21060;-48
2021/09/06 10:37:47;;;;;;;2.95;1.40;;;;;;;23.54;48.97;101690.66;1760105;79;21052;-49
2021/09/06 10:40:17;;;;;;;2.40;1.40;;;;;;;23.58;49.01;101692.22;1763784;79;21445;-48
2021/09/06 10:42:44;;;;;;;1.55;1.17;;;;;;;23.57;49.06;101686.41;1762448;79;21076;-50
2021/09/06 10:45:11;;;;;;;1.85;1.20;;;;;;;23.60;49.11;101692.15;1766545;79;21485;-50
2021/09/06 10:47:42;;;;;;;1.70;1.00;;;;;;;23.61;49.13;101692.41;1763651;79;21068;-48
2021/09/06 10:50:18;;;;;;;2.00;1.17;;;;;;;23.64;49.20;101691.77;1764906;79;21073;-48
2021/09/06 10:52:49;;;;;;;1.75;1.10;;;;;;;23.65;49.23;101689.25;1766917;80;21091;-49
2021/09/06 10:55:16;;;;;;;;;;;;;;;23.68;49.27;101691.95;1766497;79;21576;-47
2021/09/06 10:57:44;;;;;;;2.55;1.12;;;;;;;23.70;49.31;101686.08;1763734;79;20224;-49
2021/09/06 11:00:22;;;;;;;2.67;1.20;;;;;;;23.70;49.34;101681.91;1764574;79;20988;-48
2021/09/06 11:02:49;;;;;;;1.50;1.15;;;;;;;23.71;49.37;101682.17;1762343;79;21073;-49
2021/09/06 11:05:19;;;;;;;1.52;1.20;;;;;;;23.74;49.41;101674.58;1763620;79;21150;-49
2021/09/06 11:07:46;;;;;;;1.70;1.10;;;;;;;23.75;49.44;101679.83;1764367;79;21575;-49
2021/09/06 11:10:19;;;;;;;1.80;1.10;;;;;;;23.78;49.48;101673.63;1758771;79;21493;-50
2021/09/06 11:12:55;;;;;;;1.90;1.05;;;;;;;23.81;49.48;101679.11;1763265;79;21126;-48
2021/09/06 11:15:31;;;;;;;1.67;1.15;;;;;;;23.82;49.50;101673.24;1756951;79;21043;-48
2021/09/06 11:18:04;;;;;;;1.55;1.30;;;;;;;23.84;49.51;101671.55;1761112;80;21052;-48
2021/09/06 11:20:35;;;;;;;1.15;0.90;;;;;;;23.86;49.53;101678.41;1760080;80;21063;-48
2021/09/06 11:23:05;;;;;;;1.90;1.05;;;;;;;23.88;49.55;101675.33;1758184;80;21016;-47
2021/09/06 11:25:32;;;;;;;2.87;1.23;;;;;;;23.90;49.57;101678.02;1760505;79;20963;-49
2021/09/06 11:28:14;;;;;;;2.02;1.02;;;;;;;23.92;49.56;101663.81;1760419;79;21038;-47